<?xml version='1.0' encoding='UTF-8'?>
<gpx xmlns="http://www.topografix.com/GPX/1/1" creator="www.balnam.be" version="1.1" xmlns:xsi="http://www.w3.org/2001/XMLSchema-instance" xsi:schemaLocation="http://www.topografix.com/GPX/1/1 http://www.topografix.com/GPX/1/1/gpx.xsd">
<trk>
<name>ncvpcLv517</name>
<cmt>v</cmt>
<desc>Petite-Chapelle Chemin n°Lv517 Rue de Brûly</desc>
<link href="https://chemins.be/petitechapelle/chemin/Lv517"/><trkseg>
<trkpt lat="49.978858" lon="4.520186"><time>2026-05-02T15:57:51Z</time></trkpt>
<trkpt lat="49.977395" lon="4.520715"><time>2026-05-02T16:07:51Z</time></trkpt>
<trkpt lat="49.976355" lon="4.520579"><time>2026-05-02T16:17:51Z</time></trkpt>
<trkpt lat="49.975307" lon="4.520443"><time>2026-05-02T16:27:51Z</time></trkpt>
<trkpt lat="49.973133" lon="4.518734"><time>2026-05-02T16:37:51Z</time></trkpt>
</trkseg></trk>
<trk>
<name>ncvpcLv517</name>
<cmt>q</cmt>
<desc>Petite-Chapelle Chemin n°Lv517 Rue de Brûly</desc>
<link href="https://chemins.be/petitechapelle/chemin/Lv517"/><trkseg>
<trkpt lat="49.973133" lon="4.518734"><time>2026-05-02T16:37:51Z</time></trkpt>
<trkpt lat="49.972583" lon="4.518526"><time>2026-05-02T16:47:51Z</time></trkpt>
<trkpt lat="49.971337" lon="4.518283"><time>2026-05-02T16:57:51Z</time></trkpt>
<trkpt lat="49.969911" lon="4.520627"><time>2026-05-02T17:07:51Z</time></trkpt>
<trkpt lat="49.968885" lon="4.525042"><time>2026-05-02T17:17:51Z</time></trkpt>
<trkpt lat="49.968728" lon="4.526938"><time>2026-05-02T17:27:51Z</time></trkpt>
</trkseg></trk>
<trk>
<name>ncvpcLv517</name>
<cmt>r</cmt>
<desc>Petite-Chapelle Chemin n°Lv517 Rue de Brûly</desc>
<link href="https://chemins.be/petitechapelle/chemin/Lv517"/><trkseg>
<trkpt lat="49.968728" lon="4.526938"><time>2026-05-02T17:27:51Z</time></trkpt>
<trkpt lat="49.967555" lon="4.529425"><time>2026-05-02T17:37:51Z</time></trkpt>
<trkpt lat="49.966847" lon="4.530522"><time>2026-05-02T17:47:51Z</time></trkpt>
<trkpt lat="49.966522" lon="4.530883"><time>2026-05-02T17:57:51Z</time></trkpt>
<trkpt lat="49.966301" lon="4.531055"><time>2026-05-02T18:07:51Z</time></trkpt>
</trkseg></trk>
<trk>
<name>ncvpcLv517</name>
<cmt>q</cmt>
<desc>Petite-Chapelle Chemin n°Lv517 Rue de Brûly</desc>
<link href="https://chemins.be/petitechapelle/chemin/Lv517"/><trkseg>
<trkpt lat="49.966301" lon="4.531055"><time>2026-05-02T18:07:51Z</time></trkpt>
<trkpt lat="49.965920" lon="4.530790"><time>2026-05-02T18:17:51Z</time></trkpt>
<trkpt lat="49.963594" lon="4.529656"><time>2026-05-02T18:27:51Z</time></trkpt>
<trkpt lat="49.963055" lon="4.528896"><time>2026-05-02T18:37:51Z</time></trkpt>
<trkpt lat="49.962253" lon="4.526803"><time>2026-05-02T18:47:51Z</time></trkpt>
</trkseg></trk>
<trk>
<name>ncvpcLv517</name>
<cmt>v</cmt>
<desc>Petite-Chapelle Chemin n°Lv517 Rue de Brûly</desc>
<link href="https://chemins.be/petitechapelle/chemin/Lv517"/><trkseg>
<trkpt lat="49.962253" lon="4.526803"><time>2026-05-02T18:47:51Z</time></trkpt>
<trkpt lat="49.959197" lon="4.516940"><time>2026-05-02T18:57:51Z</time></trkpt>
<trkpt lat="49.955539" lon="4.505140"><time>2026-05-02T19:07:51Z</time></trkpt>
<trkpt lat="49.955012" lon="4.504471"><time>2026-05-02T19:17:51Z</time></trkpt>
<trkpt lat="49.953723" lon="4.503792"><time>2026-05-02T19:27:51Z</time></trkpt>
</trkseg></trk>
<trk>
<name>ncvpcLv517</name>
<cmt>q</cmt>
<desc>Petite-Chapelle Chemin n°Lv517 Rue de Brûly</desc>
<link href="https://chemins.be/petitechapelle/chemin/Lv517"/><trkseg>
<trkpt lat="49.953723" lon="4.503792"><time>2026-05-02T19:27:51Z</time></trkpt>
<trkpt lat="49.951809" lon="4.505593"><time>2026-05-02T19:37:51Z</time></trkpt>
<trkpt lat="49.951330" lon="4.505564"><time>2026-05-02T19:47:51Z</time></trkpt>
<trkpt lat="49.951174" lon="4.504849"><time>2026-05-02T19:57:51Z</time></trkpt>
<trkpt lat="49.951938" lon="4.501473"><time>2026-05-02T20:07:51Z</time></trkpt>
<trkpt lat="49.952016" lon="4.499765"><time>2026-05-02T20:17:51Z</time></trkpt>
</trkseg></trk>
<trk>
<name>ncvpcLv517</name>
<cmt>r</cmt>
<desc>Petite-Chapelle Chemin n°Lv517 Rue de Brûly</desc>
<link href="https://chemins.be/petitechapelle/chemin/Lv517"/><trkseg>
<trkpt lat="49.952016" lon="4.499765"><time>2026-05-02T20:17:51Z</time></trkpt>
<trkpt lat="49.952923" lon="4.491988"><time>2026-05-02T20:27:51Z</time></trkpt>
<trkpt lat="49.953134" lon="4.488784"><time>2026-05-02T20:37:51Z</time></trkpt>
</trkseg></trk>
<trk>
<name>ncvpcLv517</name>
<cmt>d</cmt>
<desc>Petite-Chapelle Chemin n°Lv517 Rue de Brûly</desc>
<link href="https://chemins.be/petitechapelle/chemin/Lv517"/><trkseg>
<trkpt lat="49.953134" lon="4.488784"><time>2026-05-02T20:37:51Z</time></trkpt>
<trkpt lat="49.952509" lon="4.485533"><time>2026-05-02T20:47:51Z</time></trkpt>
<trkpt lat="49.951078" lon="4.482185"><time>2026-05-02T20:57:51Z</time></trkpt>
<trkpt lat="49.949563" lon="4.478638"><time>2026-05-02T21:07:51Z</time></trkpt>
</trkseg>
</trk>
</gpx>